Decoded Metar for YBHM (HAMILTON ISLAND in AUSTRALIA) (IATA:N/A) | Meteo·Mobile Aviation Weather
aviador You're here:

YBHM Decoded Metar

HAMILTON ISLAND in AUSTRALIA
Report Time2018-08-18 15:30:00
UTC Time2018-08-18 15:45:23
Flight Rules vfr VFR
WindCalm
Visibility9999 m
Phenomena:N/A
Clouds:Scattered 013 Hf
Expected CloudBase > 400 ft AGL from Temp-Dew spread
CeilingNone
Temp20°C (ISA +5)
Dew Point19°C (94% RH)
QNH1016 hPa
Density Alt794 ft
Elevation16 ft
Report Wrong Elevation
Raw Report
METAR YBHM 181530Z AUTO 00000KT 9999 // SCT013 20/19 Q1016
RF00.0/000.0=

Extra information for YBHM:More info

Metar Taf Metar & Taf Last 4 Metars F.Rules Stats Wind Profile Meteogram Temp Stats Airport Information Weather charts Add Link Nearby VenuesMetar ALERT Operation Metar Decoded Social comments